sensor_id;sensor_type;location;lat;lon;timestamp;temperature;humidity
23143;DHT22;11740;51.168;4.112;2023-02-28T00:01:23;1.20;2.70
23143;DHT22;11740;51.168;4.112;2023-02-28T00:03:50;1.20;3.30
23143;DHT22;11740;51.168;4.112;2023-02-28T00:06:16;1.10;4.90
23143;DHT22;11740;51.168;4.112;2023-02-28T00:08:44;1.10;4.50
23143;DHT22;11740;51.168;4.112;2023-02-28T00:11:12;1.10;1.00
23143;DHT22;11740;51.168;4.112;2023-02-28T00:13:40;1.10;1.50
23143;DHT22;11740;51.168;4.112;2023-02-28T00:16:10;1.00;1.30
23143;DHT22;11740;51.168;4.112;2023-02-28T00:18:39;1.00;1.10
23143;DHT22;11740;51.168;4.112;2023-02-28T00:21:06;0.90;1.90
23143;DHT22;11740;51.168;4.112;2023-02-28T00:23:34;0.80;1.80
23143;DHT22;11740;51.168;4.112;2023-02-28T00:26:01;0.90;3.30
23143;DHT22;11740;51.168;4.112;2023-02-28T00:28:28;0.80;16.80
23143;DHT22;11740;51.168;4.112;2023-02-28T00:30:55;0.70;7.30
23143;DHT22;11740;51.168;4.112;2023-02-28T00:33:24;0.70;9.50
23143;DHT22;11740;51.168;4.112;2023-02-28T00:35:50;0.70;7.20
23143;DHT22;11740;51.168;4.112;2023-02-28T00:38:17;0.60;10.00
23143;DHT22;11740;51.168;4.112;2023-02-28T00:40:44;0.60;17.30
23143;DHT22;11740;51.168;4.112;2023-02-28T00:43:11;0.60;8.10
23143;DHT22;11740;51.168;4.112;2023-02-28T00:45:38;0.50;10.80
23143;DHT22;11740;51.168;4.112;2023-02-28T00:48:05;0.50;3.00
23143;DHT22;11740;51.168;4.112;2023-02-28T00:50:32;0.50;17.70
23143;DHT22;11740;51.168;4.112;2023-02-28T00:52:59;0.40;58.30
23143;DHT22;11740;51.168;4.112;2023-02-28T00:55:26;0.30;50.90
23143;DHT22;11740;51.168;4.112;2023-02-28T00:57:53;0.30;27.50
23143;DHT22;11740;51.168;4.112;2023-02-28T01:00:19;0.30;44.60
23143;DHT22;11740;51.168;4.112;2023-02-28T01:02:46;0.20;68.20
23143;DHT22;11740;51.168;4.112;2023-02-28T01:05:13;0.20;62.30
23143;DHT22;11740;51.168;4.112;2023-02-28T01:07:40;0.20;49.90
23143;DHT22;11740;51.168;4.112;2023-02-28T01:10:07;0.20;39.10
23143;DHT22;11740;51.168;4.112;2023-02-28T01:12:35;0.10;39.00
23143;DHT22;11740;51.168;4.112;2023-02-28T01:15:02;0.10;35.00
23143;DHT22;11740;51.168;4.112;2023-02-28T01:17:29;0.10;28.00
23143;DHT22;11740;51.168;4.112;2023-02-28T01:19:56;0.10;30.80
23143;DHT22;11740;51.168;4.112;2023-02-28T01:22:22;0.00;45.40
23143;DHT22;11740;51.168;4.112;2023-02-28T01:24:49;0.00;67.70
23143;DHT22;11740;51.168;4.112;2023-02-28T01:27:16;-0.10;70.80
23143;DHT22;11740;51.168;4.112;2023-02-28T01:29:43;-0.20;99.90
23143;DHT22;11740;51.168;4.112;2023-02-28T01:32:10;-0.20;92.10
23143;DHT22;11740;51.168;4.112;2023-02-28T01:34:38;-0.20;78.00
23143;DHT22;11740;51.168;4.112;2023-02-28T01:37:05;-0.20;99.90
23143;DHT22;11740;51.168;4.112;2023-02-28T01:39:32;-0.30;74.20
23143;DHT22;11740;51.168;4.112;2023-02-28T01:41:59;-0.30;58.50
23143;DHT22;11740;51.168;4.112;2023-02-28T01:47:22;-0.30;42.20
23143;DHT22;11740;51.168;4.112;2023-02-28T01:49:50;-0.30;45.70
23143;DHT22;11740;51.168;4.112;2023-02-28T01:52:18;-0.40;36.70
23143;DHT22;11740;51.168;4.112;2023-02-28T01:54:51;-0.40;31.10
23143;DHT22;11740;51.168;4.112;2023-02-28T01:57:20;-0.40;40.50
23143;DHT22;11740;51.168;4.112;2023-02-28T02:00:02;-0.50;32.40
23143;DHT22;11740;51.168;4.112;2023-02-28T02:02:35;-0.50;34.60
23143;DHT22;11740;51.168;4.112;2023-02-28T02:05:07;-0.50;39.10
23143;DHT22;11740;51.168;4.112;2023-02-28T02:07:40;-0.60;34.90
23143;DHT22;11740;51.168;4.112;2023-02-28T02:10:16;-0.60;36.30
23143;DHT22;11740;51.168;4.112;2023-02-28T02:15:49;-0.70;36.50
23143;DHT22;11740;51.168;4.112;2023-02-28T02:18:37;-0.70;39.50
23143;DHT22;11740;51.168;4.112;2023-02-28T02:24:33;-0.80;44.60
23143;DHT22;11740;51.168;4.112;2023-02-28T02:27:28;-0.80;51.10
23143;DHT22;11740;51.168;4.112;2023-02-28T02:35:51;-0.90;41.10
23143;DHT22;11740;51.168;4.112;2023-02-28T02:38:38;-1.00;39.50
23143;DHT22;11740;51.168;4.112;2023-02-28T02:41:22;-1.00;39.20
23143;DHT22;11740;51.168;4.112;2023-02-28T02:43:55;-1.00;80.50
23143;DHT22;11740;51.168;4.112;2023-02-28T02:46:32;-1.10;88.30
23143;DHT22;11740;51.168;4.112;2023-02-28T02:49:02;-1.10;99.90
23143;DHT22;11740;51.168;4.112;2023-02-28T02:51:32;-1.20;88.70
23143;DHT22;11740;51.168;4.112;2023-02-28T02:54:10;-1.20;99.90
23143;DHT22;11740;51.168;4.112;2023-02-28T02:56:42;-1.30;99.90
23143;DHT22;11740;51.168;4.112;2023-02-28T02:59:11;-1.30;99.90
23143;DHT22;11740;51.168;4.112;2023-02-28T03:01:40;-1.30;99.90
23143;DHT22;11740;51.168;4.112;2023-02-28T03:04:09;-1.30;90.60
23143;DHT22;11740;51.168;4.112;2023-02-28T03:06:39;-1.30;99.90
23143;DHT22;11740;51.168;4.112;2023-02-28T03:09:06;-1.40;99.90
23143;DHT22;11740;51.168;4.112;2023-02-28T03:11:34;-1.40;99.90
23143;DHT22;11740;51.168;4.112;2023-02-28T03:16:33;-1.40;99.90
23143;DHT22;11740;51.168;4.112;2023-02-28T03:24:58;-1.50;99.90
23143;DHT22;11740;51.168;4.112;2023-02-28T03:30:10;-1.50;99.90
23143;DHT22;11740;51.168;4.112;2023-02-28T03:32:44;-1.60;99.90
23143;DHT22;11740;51.168;4.112;2023-02-28T03:35:22;-1.60;99.90
23143;DHT22;11740;51.168;4.112;2023-02-28T03:37:52;-1.60;99.90
23143;DHT22;11740;51.168;4.112;2023-02-28T03:40:22;-1.60;99.90
23143;DHT22;11740;51.168;4.112;2023-02-28T03:42:53;-1.60;99.90
23143;DHT22;11740;51.168;4.112;2023-02-28T03:45:24;-1.60;99.90
23143;DHT22;11740;51.168;4.112;2023-02-28T03:47:54;-1.60;99.90
23143;DHT22;11740;51.168;4.112;2023-02-28T03:50:24;-1.60;99.90
23143;DHT22;11740;51.168;4.112;2023-02-28T03:52:56;-1.60;99.90
23143;DHT22;11740;51.168;4.112;2023-02-28T03:55:28;-1.60;99.90
23143;DHT22;11740;51.168;4.112;2023-02-28T03:58:07;-1.60;99.90
23143;DHT22;11740;51.168;4.112;2023-02-28T04:00:37;-1.50;99.90
23143;DHT22;11740;51.168;4.112;2023-02-28T04:03:06;-1.60;99.90
23143;DHT22;11740;51.168;4.112;2023-02-28T04:05:33;-1.60;99.90
23143;DHT22;11740;51.168;4.112;2023-02-28T04:08:12;-1.50;1.00
23143;DHT22;11740;51.168;4.112;2023-02-28T04:10:39;-1.50;1.00
23143;DHT22;11740;51.168;4.112;2023-02-28T04:13:06;-1.50;1.00
23143;DHT22;11740;51.168;4.112;2023-02-28T04:15:33;-1.50;1.00
23143;DHT22;11740;51.168;4.112;2023-02-28T04:18:00;-1.50;1.00
23143;DHT22;11740;51.168;4.112;2023-02-28T04:20:26;-1.50;1.00
23143;DHT22;11740;51.168;4.112;2023-02-28T04:22:53;-1.50;1.00
23143;DHT22;11740;51.168;4.112;2023-02-28T04:25:20;-1.50;1.00
23143;DHT22;11740;51.168;4.112;2023-02-28T04:27:47;-1.50;1.00
23143;DHT22;11740;51.168;4.112;2023-02-28T04:30:14;-1.40;1.00
23143;DHT22;11740;51.168;4.112;2023-02-28T04:32:41;-1.50;1.00
23143;DHT22;11740;51.168;4.112;2023-02-28T04:35:08;-1.50;1.00
23143;DHT22;11740;51.168;4.112;2023-02-28T04:37:37;-1.40;1.00
23143;DHT22;11740;51.168;4.112;2023-02-28T04:40:04;-1.40;77.10
23143;DHT22;11740;51.168;4.112;2023-02-28T04:42:31;-1.40;99.90
23143;DHT22;11740;51.168;4.112;2023-02-28T04:45:02;-1.40;1.00
23143;DHT22;11740;51.168;4.112;2023-02-28T04:47:29;-1.40;1.00
23143;DHT22;11740;51.168;4.112;2023-02-28T04:49:57;-1.40;61.40
23143;DHT22;11740;51.168;4.112;2023-02-28T04:52:23;-1.40;99.90
23143;DHT22;11740;51.168;4.112;2023-02-28T04:54:50;-1.40;99.90
23143;DHT22;11740;51.168;4.112;2023-02-28T04:57:17;-1.30;99.90
23143;DHT22;11740;51.168;4.112;2023-02-28T04:59:44;-1.40;99.90
23143;DHT22;11740;51.168;4.112;2023-02-28T05:02:11;-1.40;99.90
23143;DHT22;11740;51.168;4.112;2023-02-28T05:04:38;-1.30;1.00
23143;DHT22;11740;51.168;4.112;2023-02-28T05:07:05;-1.30;1.00
23143;DHT22;11740;51.168;4.112;2023-02-28T05:09:32;-1.30;99.90
23143;DHT22;11740;51.168;4.112;2023-02-28T05:11:59;-1.30;1.00
23143;DHT22;11740;51.168;4.112;2023-02-28T05:14:26;-1.30;99.90
23143;DHT22;11740;51.168;4.112;2023-02-28T05:16:53;-1.20;1.00
23143;DHT22;11740;51.168;4.112;2023-02-28T05:19:20;-1.20;1.00
23143;DHT22;11740;51.168;4.112;2023-02-28T05:21:49;-1.20;1.00
23143;DHT22;11740;51.168;4.112;2023-02-28T05:24:17;-1.20;1.00
23143;DHT22;11740;51.168;4.112;2023-02-28T05:26:50;-1.20;1.00
23143;DHT22;11740;51.168;4.112;2023-02-28T05:29:18;-1.20;99.90
23143;DHT22;11740;51.168;4.112;2023-02-28T05:31:45;-1.10;99.90
23143;DHT22;11740;51.168;4.112;2023-02-28T05:34:13;-1.00;1.00
23143;DHT22;11740;51.168;4.112;2023-02-28T05:36:42;-1.00;1.00
23143;DHT22;11740;51.168;4.112;2023-02-28T05:39:09;-1.00;1.00
23143;DHT22;11740;51.168;4.112;2023-02-28T05:41:40;-1.00;1.00
23143;DHT22;11740;51.168;4.112;2023-02-28T05:44:07;-1.00;1.00
23143;DHT22;11740;51.168;4.112;2023-02-28T05:46:35;-0.90;1.00
23143;DHT22;11740;51.168;4.112;2023-02-28T05:49:02;-0.90;99.90
23143;DHT22;11740;51.168;4.112;2023-02-28T05:51:29;-0.80;70.60
23143;DHT22;11740;51.168;4.112;2023-02-28T05:54:00;-0.70;99.90
23143;DHT22;11740;51.168;4.112;2023-02-28T05:56:27;-0.70;99.90
23143;DHT22;11740;51.168;4.112;2023-02-28T05:58:54;-0.70;5.30
23143;DHT22;11740;51.168;4.112;2023-02-28T06:01:33;-0.70;1.00
23143;DHT22;11740;51.168;4.112;2023-02-28T06:04:05;-0.70;1.00
23143;DHT22;11740;51.168;4.112;2023-02-28T06:06:37;-0.70;1.00
23143;DHT22;11740;51.168;4.112;2023-02-28T06:09:06;-0.60;59.50
23143;DHT22;11740;51.168;4.112;2023-02-28T06:11:33;-0.60;1.00
23143;DHT22;11740;51.168;4.112;2023-02-28T06:14:00;-0.60;1.00
23143;DHT22;11740;51.168;4.112;2023-02-28T06:16:29;-0.50;54.20
23143;DHT22;11740;51.168;4.112;2023-02-28T06:18:57;-0.50;99.90
23143;DHT22;11740;51.168;4.112;2023-02-28T06:21:25;-0.50;1.00
23143;DHT22;11740;51.168;4.112;2023-02-28T06:23:55;-0.50;1.00
23143;DHT22;11740;51.168;4.112;2023-02-28T06:26:22;-0.50;1.00
23143;DHT22;11740;51.168;4.112;2023-02-28T06:28:50;-0.50;1.00
23143;DHT22;11740;51.168;4.112;2023-02-28T06:31:17;-0.60;1.00
23143;DHT22;11740;51.168;4.112;2023-02-28T06:33:45;-0.50;54.40
23143;DHT22;11740;51.168;4.112;2023-02-28T06:36:12;-0.40;1.00
23143;DHT22;11740;51.168;4.112;2023-02-28T06:38:41;-0.50;1.00
23143;DHT22;11740;51.168;4.112;2023-02-28T06:41:09;-0.40;36.10
23143;DHT22;11740;51.168;4.112;2023-02-28T06:43:37;-0.40;1.00
23143;DHT22;11740;51.168;4.112;2023-02-28T06:46:07;-0.40;99.90
23143;DHT22;11740;51.168;4.112;2023-02-28T06:48:36;-0.40;23.00
23143;DHT22;11740;51.168;4.112;2023-02-28T06:51:04;-0.30;1.00
23143;DHT22;11740;51.168;4.112;2023-02-28T06:53:31;-0.30;1.00
23143;DHT22;11740;51.168;4.112;2023-02-28T06:55:58;-0.30;4.50
23143;DHT22;11740;51.168;4.112;2023-02-28T06:58:25;-0.30;1.00
23143;DHT22;11740;51.168;4.112;2023-02-28T07:00:52;-0.20;20.00
23143;DHT22;11740;51.168;4.112;2023-02-28T07:03:19;-0.20;1.00
23143;DHT22;11740;51.168;4.112;2023-02-28T07:05:46;-0.20;48.80
23143;DHT22;11740;51.168;4.112;2023-02-28T07:08:12;-0.10;99.90
23143;DHT22;11740;51.168;4.112;2023-02-28T07:10:39;-0.20;1.00
23143;DHT22;11740;51.168;4.112;2023-02-28T07:13:07;-0.10;1.00
23143;DHT22;11740;51.168;4.112;2023-02-28T07:15:36;-0.10;1.00
23143;DHT22;11740;51.168;4.112;2023-02-28T07:18:07;-0.10;1.00
23143;DHT22;11740;51.168;4.112;2023-02-28T07:20:34;-0.10;1.00
23143;DHT22;11740;51.168;4.112;2023-02-28T07:23:01;0.00;1.00
23143;DHT22;11740;51.168;4.112;2023-02-28T07:25:28;0.00;1.00
23143;DHT22;11740;51.168;4.112;2023-02-28T07:27:55;0.10;1.00
23143;DHT22;11740;51.168;4.112;2023-02-28T07:30:22;0.10;1.00
23143;DHT22;11740;51.168;4.112;2023-02-28T07:32:49;0.10;1.00
23143;DHT22;11740;51.168;4.112;2023-02-28T07:35:16;0.10;1.00
23143;DHT22;11740;51.168;4.112;2023-02-28T07:37:43;0.20;1.00
23143;DHT22;11740;51.168;4.112;2023-02-28T07:40:10;0.20;1.00
23143;DHT22;11740;51.168;4.112;2023-02-28T07:42:38;0.20;1.00
23143;DHT22;11740;51.168;4.112;2023-02-28T07:45:09;0.20;1.00
23143;DHT22;11740;51.168;4.112;2023-02-28T07:47:38;0.30;1.00
23143;DHT22;11740;51.168;4.112;2023-02-28T07:50:06;0.30;1.00
23143;DHT22;11740;51.168;4.112;2023-02-28T07:52:34;0.30;1.00
23143;DHT22;11740;51.168;4.112;2023-02-28T07:55:03;0.40;1.00
23143;DHT22;11740;51.168;4.112;2023-02-28T07:57:31;0.50;1.00
23143;DHT22;11740;51.168;4.112;2023-02-28T08:00:01;0.40;1.00
23143;DHT22;11740;51.168;4.112;2023-02-28T08:02:29;0.50;1.00
23143;DHT22;11740;51.168;4.112;2023-02-28T08:04:56;0.60;1.00
23143;DHT22;11740;51.168;4.112;2023-02-28T08:07:23;0.60;1.00
23143;DHT22;11740;51.168;4.112;2023-02-28T08:09:50;0.60;1.00
23143;DHT22;11740;51.168;4.112;2023-02-28T08:12:17;0.60;1.00
23143;DHT22;11740;51.168;4.112;2023-02-28T08:14:44;0.70;1.00
23143;DHT22;11740;51.168;4.112;2023-02-28T08:17:11;0.70;1.00
23143;DHT22;11740;51.168;4.112;2023-02-28T08:19:38;0.80;1.00
23143;DHT22;11740;51.168;4.112;2023-02-28T08:22:05;0.70;1.00
23143;DHT22;11740;51.168;4.112;2023-02-28T08:24:32;0.80;1.00
23143;DHT22;11740;51.168;4.112;2023-02-28T08:26:59;0.80;1.00
23143;DHT22;11740;51.168;4.112;2023-02-28T08:29:26;0.90;1.00
23143;DHT22;11740;51.168;4.112;2023-02-28T08:31:53;0.90;1.00
23143;DHT22;11740;51.168;4.112;2023-02-28T08:34:20;1.00;1.00
23143;DHT22;11740;51.168;4.112;2023-02-28T08:36:47;0.90;1.00
23143;DHT22;11740;51.168;4.112;2023-02-28T08:39:14;1.00;1.00
23143;DHT22;11740;51.168;4.112;2023-02-28T08:41:42;1.00;1.00
23143;DHT22;11740;51.168;4.112;2023-02-28T08:44:08;1.10;99.90
23143;DHT22;11740;51.168;4.112;2023-02-28T08:46:35;1.20;99.90
23143;DHT22;11740;51.168;4.112;2023-02-28T08:49:02;1.20;99.90
23143;DHT22;11740;51.168;4.112;2023-02-28T08:51:29;1.20;1.00
23143;DHT22;11740;51.168;4.112;2023-02-28T08:54:00;1.20;1.00
23143;DHT22;11740;51.168;4.112;2023-02-28T08:56:27;1.20;1.00
23143;DHT22;11740;51.168;4.112;2023-02-28T08:58:55;1.20;1.00
23143;DHT22;11740;51.168;4.112;2023-02-28T09:01:27;1.20;1.00
23143;DHT22;11740;51.168;4.112;2023-02-28T09:03:56;1.20;1.00
23143;DHT22;11740;51.168;4.112;2023-02-28T09:06:25;1.20;1.00
23143;DHT22;11740;51.168;4.112;2023-02-28T09:08:53;1.30;1.00
23143;DHT22;11740;51.168;4.112;2023-02-28T09:11:25;1.30;1.00
23143;DHT22;11740;51.168;4.112;2023-02-28T09:13:52;1.40;1.00
23143;DHT22;11740;51.168;4.112;2023-02-28T09:16:19;1.40;1.00
23143;DHT22;11740;51.168;4.112;2023-02-28T09:18:46;1.50;1.00
23143;DHT22;11740;51.168;4.112;2023-02-28T09:21:16;1.50;1.00
23143;DHT22;11740;51.168;4.112;2023-02-28T09:23:44;1.50;99.90
23143;DHT22;11740;51.168;4.112;2023-02-28T09:26:22;1.50;99.90
23143;DHT22;11740;51.168;4.112;2023-02-28T09:28:51;1.60;99.90
23143;DHT22;11740;51.168;4.112;2023-02-28T09:31:20;1.70;99.90
23143;DHT22;11740;51.168;4.112;2023-02-28T09:33:52;1.80;99.90
23143;DHT22;11740;51.168;4.112;2023-02-28T09:36:20;1.80;99.90
23143;DHT22;11740;51.168;4.112;2023-02-28T09:38:50;1.90;99.90
23143;DHT22;11740;51.168;4.112;2023-02-28T09:41:20;2.00;99.90
23143;DHT22;11740;51.168;4.112;2023-02-28T09:43:50;2.00;99.90
23143;DHT22;11740;51.168;4.112;2023-02-28T09:46:42;2.10;99.90
23143;DHT22;11740;51.168;4.112;2023-02-28T09:49:12;2.10;99.90
23143;DHT22;11740;51.168;4.112;2023-02-28T09:54:37;2.20;99.90
23143;DHT22;11740;51.168;4.112;2023-02-28T09:57:11;2.20;99.90
23143;DHT22;11740;51.168;4.112;2023-02-28T09:59:54;2.30;99.90
23143;DHT22;11740;51.168;4.112;2023-02-28T10:05:00;2.40;99.90
23143;DHT22;11740;51.168;4.112;2023-02-28T10:13:00;2.50;99.90
23143;DHT22;11740;51.168;4.112;2023-02-28T10:15:30;2.60;99.90
23143;DHT22;11740;51.168;4.112;2023-02-28T10:18:00;2.70;99.90
23143;DHT22;11740;51.168;4.112;2023-02-28T10:20:36;2.80;99.90
23143;DHT22;11740;51.168;4.112;2023-02-28T10:23:59;2.90;99.90
23143;DHT22;11740;51.168;4.112;2023-02-28T10:26:00;3.00;99.90
23143;DHT22;11740;51.168;4.112;2023-02-28T10:28:42;3.10;99.90
23143;DHT22;11740;51.168;4.112;2023-02-28T10:31:17;3.20;99.90
23143;DHT22;11740;51.168;4.112;2023-02-28T10:33:45;3.20;99.90
23143;DHT22;11740;51.168;4.112;2023-02-28T10:36:16;3.30;99.90
23143;DHT22;11740;51.168;4.112;2023-02-28T10:38:48;3.40;99.90
23143;DHT22;11740;51.168;4.112;2023-02-28T10:41:26;3.50;99.90
23143;DHT22;11740;51.168;4.112;2023-02-28T10:44:15;3.50;99.90
23143;DHT22;11740;51.168;4.112;2023-02-28T10:46:46;3.60;99.90
23143;DHT22;11740;51.168;4.112;2023-02-28T10:49:17;3.60;99.90
23143;DHT22;11740;51.168;4.112;2023-02-28T10:51:49;3.70;99.90
23143;DHT22;11740;51.168;4.112;2023-02-28T10:54:22;3.80;99.90
23143;DHT22;11740;51.168;4.112;2023-02-28T10:57:06;3.90;99.90
23143;DHT22;11740;51.168;4.112;2023-02-28T10:59:50;4.00;99.90
23143;DHT22;11740;51.168;4.112;2023-02-28T11:02:35;4.10;99.90
23143;DHT22;11740;51.168;4.112;2023-02-28T11:05:21;4.20;99.90
23143;DHT22;11740;51.168;4.112;2023-02-28T11:08:06;4.40;99.90
23143;DHT22;11740;51.168;4.112;2023-02-28T11:10:39;4.40;85.30
23143;DHT22;11740;51.168;4.112;2023-02-28T11:13:06;4.40;84.20
23143;DHT22;11740;51.168;4.112;2023-02-28T11:15:33;4.40;66.00
23143;DHT22;11740;51.168;4.112;2023-02-28T11:18:02;4.40;77.60
23143;DHT22;11740;51.168;4.112;2023-02-28T11:20:52;4.50;69.40
23143;DHT22;11740;51.168;4.112;2023-02-28T11:23:22;4.60;58.30
23143;DHT22;11740;51.168;4.112;2023-02-28T11:25:52;4.70;53.30
23143;DHT22;11740;51.168;4.112;2023-02-28T11:28:25;4.70;54.80
23143;DHT22;11740;51.168;4.112;2023-02-28T11:31:08;4.70;27.90
23143;DHT22;11740;51.168;4.112;2023-02-28T11:33:43;4.80;27.60
23143;DHT22;11740;51.168;4.112;2023-02-28T11:36:13;4.80;22.30
23143;DHT22;11740;51.168;4.112;2023-02-28T11:38:42;4.80;21.50
23143;DHT22;11740;51.168;4.112;2023-02-28T11:47:01;5.10;12.40
23143;DHT22;11740;51.168;4.112;2023-02-28T11:50:03;5.20;11.00
23143;DHT22;11740;51.168;4.112;2023-02-28T11:55:16;5.20;4.40
23143;DHT22;11740;51.168;4.112;2023-02-28T11:57:56;5.20;1.00
23143;DHT22;11740;51.168;4.112;2023-02-28T12:06:23;5.40;1.00
23143;DHT22;11740;51.168;4.112;2023-02-28T12:11:38;5.60;1.00
23143;DHT22;11740;51.168;4.112;2023-02-28T12:14:42;5.70;1.00
23143;DHT22;11740;51.168;4.112;2023-02-28T12:17:21;5.80;1.00
23143;DHT22;11740;51.168;4.112;2023-02-28T12:22:30;6.00;1.00
23143;DHT22;11740;51.168;4.112;2023-02-28T12:27:37;6.10;1.00
23143;DHT22;11740;51.168;4.112;2023-02-28T12:30:08;6.20;1.00
23143;DHT22;11740;51.168;4.112;2023-02-28T12:32:43;6.30;1.00
23143;DHT22;11740;51.168;4.112;2023-02-28T12:35:13;6.40;1.00
23143;DHT22;11740;51.168;4.112;2023-02-28T12:37:44;6.40;1.00
23143;DHT22;11740;51.168;4.112;2023-02-28T12:40:17;6.50;1.00
23143;DHT22;11740;51.168;4.112;2023-02-28T12:42:50;6.70;1.00
23143;DHT22;11740;51.168;4.112;2023-02-28T12:45:20;6.80;1.00
23143;DHT22;11740;51.168;4.112;2023-02-28T12:47:54;6.90;1.00
23143;DHT22;11740;51.168;4.112;2023-02-28T12:50:24;7.00;1.00
23143;DHT22;11740;51.168;4.112;2023-02-28T13:09:57;7.70;1.00
23143;DHT22;11740;51.168;4.112;2023-02-28T13:12:26;7.80;1.00
23143;DHT22;11740;51.168;4.112;2023-02-28T13:17:51;8.00;1.00
23143;DHT22;11740;51.168;4.112;2023-02-28T13:20:20;8.10;1.00
23143;DHT22;11740;51.168;4.112;2023-02-28T13:22:50;8.10;1.00
23143;DHT22;11740;51.168;4.112;2023-02-28T13:27:50;8.40;1.00
23143;DHT22;11740;51.168;4.112;2023-02-28T13:35:46;8.60;1.00
23143;DHT22;11740;51.168;4.112;2023-02-28T13:38:21;8.70;1.00
23143;DHT22;11740;51.168;4.112;2023-02-28T13:40:49;8.70;1.00
23143;DHT22;11740;51.168;4.112;2023-02-28T13:43:16;8.80;1.00
23143;DHT22;11740;51.168;4.112;2023-02-28T13:48:52;8.90;1.00
23143;DHT22;11740;51.168;4.112;2023-02-28T13:51:37;9.00;1.00
23143;DHT22;11740;51.168;4.112;2023-02-28T13:54:13;9.20;1.00
23143;DHT22;11740;51.168;4.112;2023-02-28T13:59:25;9.60;1.00
23143;DHT22;11740;51.168;4.112;2023-02-28T14:04:54;9.60;1.00
23143;DHT22;11740;51.168;4.112;2023-02-28T14:07:33;9.70;1.00
23143;DHT22;11740;51.168;4.112;2023-02-28T14:10:05;9.80;1.00
23143;DHT22;11740;51.168;4.112;2023-02-28T14:12:52;10.10;1.00
23143;DHT22;11740;51.168;4.112;2023-02-28T14:17:55;10.20;1.00
23143;DHT22;11740;51.168;4.112;2023-02-28T14:20:23;10.20;1.00
23143;DHT22;11740;51.168;4.112;2023-02-28T14:22:55;10.20;1.00
23143;DHT22;11740;51.168;4.112;2023-02-28T14:25:44;10.30;1.00
23143;DHT22;11740;51.168;4.112;2023-02-28T14:28:36;10.50;1.00
23143;DHT22;11740;51.168;4.112;2023-02-28T14:31:51;10.70;1.00
23143;DHT22;11740;51.168;4.112;2023-02-28T14:37:00;10.90;1.00
23143;DHT22;11740;51.168;4.112;2023-02-28T14:39:28;11.00;1.00
23143;DHT22;11740;51.168;4.112;2023-02-28T14:42:00;11.30;1.00
23143;DHT22;11740;51.168;4.112;2023-02-28T14:44:31;11.50;1.00
23143;DHT22;11740;51.168;4.112;2023-02-28T14:47:02;11.60;1.00
23143;DHT22;11740;51.168;4.112;2023-02-28T14:49:34;11.60;1.00
23143;DHT22;11740;51.168;4.112;2023-02-28T14:52:09;11.60;1.00
23143;DHT22;11740;51.168;4.112;2023-02-28T14:54:40;11.60;1.00
23143;DHT22;11740;51.168;4.112;2023-02-28T14:57:20;11.70;1.00
23143;DHT22;11740;51.168;4.112;2023-02-28T15:02:41;11.60;1.00
23143;DHT22;11740;51.168;4.112;2023-02-28T15:07:37;11.80;1.00
23143;DHT22;11740;51.168;4.112;2023-02-28T15:12:41;12.00;1.00
23143;DHT22;11740;51.168;4.112;2023-02-28T15:15:16;12.10;1.00
23143;DHT22;11740;51.168;4.112;2023-02-28T15:17:50;12.20;1.00
23143;DHT22;11740;51.168;4.112;2023-02-28T15:20:20;12.30;1.00
23143;DHT22;11740;51.168;4.112;2023-02-28T15:22:47;12.10;1.00
23143;DHT22;11740;51.168;4.112;2023-02-28T15:25:18;12.20;1.00
23143;DHT22;11740;51.168;4.112;2023-02-28T15:27:48;12.60;1.00
23143;DHT22;11740;51.168;4.112;2023-02-28T15:30:20;12.60;1.00
23143;DHT22;11740;51.168;4.112;2023-02-28T15:35:45;12.50;1.00
23143;DHT22;11740;51.168;4.112;2023-02-28T15:38:46;12.80;1.00
23143;DHT22;11740;51.168;4.112;2023-02-28T15:41:16;12.90;1.00
23143;DHT22;11740;51.168;4.112;2023-02-28T15:43:57;12.80;1.00
23143;DHT22;11740;51.168;4.112;2023-02-28T15:46:41;13.10;1.00
23143;DHT22;11740;51.168;4.112;2023-02-28T15:49:17;13.10;1.00
23143;DHT22;11740;51.168;4.112;2023-02-28T15:51:48;12.90;1.00
23143;DHT22;11740;51.168;4.112;2023-02-28T15:54:23;13.00;1.00
23143;DHT22;11740;51.168;4.112;2023-02-28T15:56:51;13.10;1.00
23143;DHT22;11740;51.168;4.112;2023-02-28T15:59:24;13.20;1.00
23143;DHT22;11740;51.168;4.112;2023-02-28T16:02:29;13.20;1.00
23143;DHT22;11740;51.168;4.112;2023-02-28T16:07:35;13.10;1.00
23143;DHT22;11740;51.168;4.112;2023-02-28T16:10:06;13.20;1.00
23143;DHT22;11740;51.168;4.112;2023-02-28T16:12:35;13.30;1.00
23143;DHT22;11740;51.168;4.112;2023-02-28T16:15:07;13.00;1.00
23143;DHT22;11740;51.168;4.112;2023-02-28T16:17:40;12.60;1.00
23143;DHT22;11740;51.168;4.112;2023-02-28T16:20:18;12.30;1.00
23143;DHT22;11740;51.168;4.112;2023-02-28T16:22:49;11.90;1.00
23143;DHT22;11740;51.168;4.112;2023-02-28T16:25:17;11.50;1.00
23143;DHT22;11740;51.168;4.112;2023-02-28T16:27:50;11.40;1.00
23143;DHT22;11740;51.168;4.112;2023-02-28T16:30:21;11.30;1.00
23143;DHT22;11740;51.168;4.112;2023-02-28T16:32:52;11.40;1.00
23143;DHT22;11740;51.168;4.112;2023-02-28T16:35:22;11.20;1.00
23143;DHT22;11740;51.168;4.112;2023-02-28T16:37:53;11.00;1.00
23143;DHT22;11740;51.168;4.112;2023-02-28T16:40:22;10.90;1.00
23143;DHT22;11740;51.168;4.112;2023-02-28T16:42:52;10.80;1.00
23143;DHT22;11740;51.168;4.112;2023-02-28T16:45:22;10.70;1.00
23143;DHT22;11740;51.168;4.112;2023-02-28T16:47:50;10.70;1.00
23143;DHT22;11740;51.168;4.112;2023-02-28T16:50:24;10.80;1.00
23143;DHT22;11740;51.168;4.112;2023-02-28T16:52:52;10.70;1.00
23143;DHT22;11740;51.168;4.112;2023-02-28T16:55:21;10.60;1.00
23143;DHT22;11740;51.168;4.112;2023-02-28T16:57:53;10.40;1.00
23143;DHT22;11740;51.168;4.112;2023-02-28T17:00:21;10.40;1.00
23143;DHT22;11740;51.168;4.112;2023-02-28T17:02:49;10.30;1.00
23143;DHT22;11740;51.168;4.112;2023-02-28T17:05:17;10.20;1.00
23143;DHT22;11740;51.168;4.112;2023-02-28T17:07:45;10.10;1.00
23143;DHT22;11740;51.168;4.112;2023-02-28T17:10:19;9.90;1.00
23143;DHT22;11740;51.168;4.112;2023-02-28T17:12:48;9.80;1.00
23143;DHT22;11740;51.168;4.112;2023-02-28T17:15:17;9.60;1.00
23143;DHT22;11740;51.168;4.112;2023-02-28T17:17:45;9.40;1.00
23143;DHT22;11740;51.168;4.112;2023-02-28T17:20:14;9.30;1.00
23143;DHT22;11740;51.168;4.112;2023-02-28T17:22:45;9.20;1.00
23143;DHT22;11740;51.168;4.112;2023-02-28T17:25:12;9.10;1.00
23143;DHT22;11740;51.168;4.112;2023-02-28T17:27:39;9.10;1.00
23143;DHT22;11740;51.168;4.112;2023-02-28T17:30:22;9.10;1.00
23143;DHT22;11740;51.168;4.112;2023-02-28T17:32:51;9.10;1.00
23143;DHT22;11740;51.168;4.112;2023-02-28T17:35:18;9.00;1.00
23143;DHT22;11740;51.168;4.112;2023-02-28T17:37:45;9.00;1.00
23143;DHT22;11740;51.168;4.112;2023-02-28T17:40:13;8.90;1.00
23143;DHT22;11740;51.168;4.112;2023-02-28T17:42:41;8.80;1.00
23143;DHT22;11740;51.168;4.112;2023-02-28T17:45:09;9.00;1.00
23143;DHT22;11740;51.168;4.112;2023-02-28T17:47:36;9.00;1.00
23143;DHT22;11740;51.168;4.112;2023-02-28T17:50:04;9.10;1.00
23143;DHT22;11740;51.168;4.112;2023-02-28T17:52:31;9.30;1.00
23143;DHT22;11740;51.168;4.112;2023-02-28T17:55:03;9.10;1.00
23143;DHT22;11740;51.168;4.112;2023-02-28T17:57:30;9.00;1.00
23143;DHT22;11740;51.168;4.112;2023-02-28T17:59:57;8.90;1.00
23143;DHT22;11740;51.168;4.112;2023-02-28T18:02:24;8.70;1.00
23143;DHT22;11740;51.168;4.112;2023-02-28T18:04:51;8.70;1.00